Back to Top

Language: 

My Weather Underground Personal Weather Station Historical Data with Graphs...

Delerius Weather Station Historical Data
Daily Summary for February 12, 2017 Units:  Both    English   Metric
« Previous Day
Next Day »
Daily Weekly Monthly Yearly Custom
  High: Low: Average:
Temperature: 37.8 °F /  3.2 °C 34.4 °F /  1.3 °C 35.9 °F /  2.2 °C
Dew Point: 36.5 °F /  2.5 °C 32.8 °F /  0.4 °C 34.8 °F /  1.6 °C
Humidity: 97 % 93 % 96 %
Wind Speed: 11.0 mph /  17.7 km/h - 7.2 mph /  11.6 km/h
Wind Gust: 16.0 mph /  25.7 km/h - -
Wind:- - ENE
Pressure: 30.38 in /  1028.7 hPa 30.30 in /  1026 hPa -
Precipitation: 0.11 in /  2.79 mm    
Historical Graphs
 
 
Tabular Data for February 12, 2017
Time Temperature Dew Point Pressure Wind Wind Speed Wind Gust Humidity Rainfall Rate (Hourly) solar Conditions
00:00 36.6 °F /  2.6 °C 35.6 °F /  2 °C 30.33 in /  1027 hPa NE 8.0 mph /  12.9 km/h 11.0 mph /  17.7 km/h 96 % 0.00 in /  0 mm 0 W/m2
00:05 36.6 °F /  2.6 °C 35.6 °F /  2 °C 30.33 in /  1027 hPa ENE 7.0 mph /  11.3 km/h 11.0 mph /  17.7 km/h 96 % 0.00 in /  0 mm 0 W/m2
00:15 36.5 °F /  2.5 °C 35.5 °F /  1.9 °C 30.33 in /  1027 hPa ENE 6.0 mph /  9.7 km/h 8.0 mph /  12.9 km/h 96 % 0.00 in /  0 mm 0 W/m2
00:20 36.5 °F /  2.5 °C 35.5 °F /  1.9 °C 30.33 in /  1027 hPa NE 6.0 mph /  9.7 km/h 6.0 mph /  9.7 km/h 96 % 0.00 in /  0 mm 0 W/m2
00:25 36.5 °F /  2.5 °C 35.5 °F /  1.9 °C 30.33 in /  1027 hPa NE 6.0 mph /  9.7 km/h 6.0 mph /  9.7 km/h 96 % 0.00 in /  0 mm 0 W/m2
00:30 36.4 °F /  2.4 °C 35.4 °F /  1.9 °C 30.34 in /  1027.3 hPa East 6.0 mph /  9.7 km/h 7.0 mph /  11.3 km/h 96 % 0.00 in /  0 mm 0 W/m2
00:40 36.4 °F /  2.4 °C 35.4 °F /  1.9 °C 30.33 in /  1027 hPa ENE 6.0 mph /  9.7 km/h 7.0 mph /  11.3 km/h 96 % 0.00 in /  0 mm 0 W/m2
00:50 36.5 °F /  2.5 °C 35.5 °F /  1.9 °C 30.34 in /  1027.3 hPa NE 4.0 mph /  6.4 km/h 4.0 mph /  6.4 km/h 96 % 0.00 in /  0 mm 0 W/m2
00:55 36.5 °F /  2.5 °C 35.5 °F /  1.9 °C 30.34 in /  1027.3 hPa NE 4.0 mph /  6.4 km/h 8.0 mph /  12.9 km/h 96 % 0.00 in /  0 mm 0 W/m2
01:00 36.6 °F /  2.6 °C 35.6 °F /  2 °C 30.34 in /  1027.3 hPa NE 5.0 mph /  8 km/h 10.0 mph /  16.1 km/h 96 % 0.00 in /  0 mm 0 W/m2
01:10 36.5 °F /  2.5 °C 35.5 °F /  1.9 °C 30.34 in /  1027.3 hPa ENE 6.0 mph /  9.7 km/h 6.0 mph /  9.7 km/h 96 % 0.00 in /  0 mm 0 W/m2
01:15 36.5 °F /  2.5 °C 35.5 °F /  1.9 °C 30.34 in /  1027.3 hPa NE 6.0 mph /  9.7 km/h 7.0 mph /  11.3 km/h 96 % 0.00 in /  0 mm 0 W/m2
01:20 36.4 °F /  2.4 °C 35.4 °F /  1.9 °C 30.34 in /  1027.3 hPa ENE 6.0 mph /  9.7 km/h 15.0 mph /  24.1 km/h 96 % 0.00 in /  0 mm 0 W/m2
01:25 36.4 °F /  2.4 °C 35.4 °F /  1.9 °C 30.35 in /  1027.7 hPa East 6.0 mph /  9.7 km/h 15.0 mph /  24.1 km/h 96 % 0.00 in /  0 mm 0 W/m2
01:35 36.5 °F /  2.5 °C 35.5 °F /  1.9 °C 30.35 in /  1027.7 hPa NE 7.0 mph /  11.3 km/h 15.0 mph /  24.1 km/h 96 % 0.00 in /  0 mm 0 W/m2
01:40 36.5 °F /  2.5 °C 35.5 °F /  1.9 °C 30.35 in /  1027.7 hPa ENE 9.0 mph /  14.5 km/h 9.0 mph /  14.5 km/h 96 % 0.00 in /  0 mm 0 W/m2
01:45 36.6 °F /  2.6 °C 35.6 °F /  2 °C 30.35 in /  1027.7 hPa NE 9.0 mph /  14.5 km/h 15.0 mph /  24.1 km/h 96 % 0.00 in /  0 mm 0 W/m2
01:50 36.5 °F /  2.5 °C 35.5 °F /  1.9 °C 30.35 in /  1027.7 hPa East 7.0 mph /  11.3 km/h 7.0 mph /  11.3 km/h 96 % 0.00 in /  0 mm 0 W/m2
01:55 36.6 °F /  2.6 °C 35.6 °F /  2 °C 30.35 in /  1027.7 hPa East 6.0 mph /  9.7 km/h 15.0 mph /  24.1 km/h 96 % 0.00 in /  0 mm 0 W/m2
02:05 36.5 °F /  2.5 °C 35.5 °F /  1.9 °C 30.35 in /  1027.7 hPa East 9.0 mph /  14.5 km/h 15.0 mph /  24.1 km/h 96 % 0.00 in /  0 mm 0 W/m2
02:10 36.4 °F /  2.4 °C 35.4 °F /  1.9 °C 30.35 in /  1027.7 hPa NE 8.0 mph /  12.9 km/h 15.0 mph /  24.1 km/h 96 % 0.00 in /  0 mm 0 W/m2
02:15 36.2 °F /  2.3 °C 35.2 °F /  1.8 °C 30.35 in /  1027.7 hPa ENE 9.0 mph /  14.5 km/h 15.0 mph /  24.1 km/h 96 % 0.00 in /  0 mm 0 W/m2
02:20 36.2 °F /  2.3 °C 35.2 °F /  1.8 °C 30.35 in /  1027.7 hPa NE 9.0 mph /  14.5 km/h 9.0 mph /  14.5 km/h 96 % 0.00 in /  0 mm 0 W/m2
02:25 36.1 °F /  2.3 °C 35.1 °F /  1.7 °C 30.35 in /  1027.7 hPa ENE 8.0 mph /  12.9 km/h 15.0 mph /  24.1 km/h 96 % 0.00 in /  0 mm 0 W/m2
02:30 36.0 °F /  2.2 °C 35.0 °F /  1.7 °C 30.35 in /  1027.7 hPa ENE 9.0 mph /  14.5 km/h 9.0 mph /  14.5 km/h 96 % 0.00 in /  0 mm 0 W/m2
02:40 35.9 °F /  2.2 °C 34.9 °F /  1.6 °C 30.36 in /  1028 hPa ENE 7.0 mph /  11.3 km/h 7.0 mph /  11.3 km/h 96 % 0.00 in /  0 mm 0 W/m2
02:45 35.9 °F /  2.2 °C 34.9 °F /  1.6 °C 30.35 in /  1027.7 hPa ENE 6.0 mph /  9.7 km/h 15.0 mph /  24.1 km/h 96 % 0.00 in /  0 mm 0 W/m2
02:50 35.9 °F /  2.2 °C 34.9 °F /  1.6 °C 30.35 in /  1027.7 hPa ENE 6.0 mph /  9.7 km/h 6.0 mph /  9.7 km/h 96 % 0.00 in /  0 mm 0 W/m2
02:55 36.0 °F /  2.2 °C 35.0 °F /  1.7 °C 30.35 in /  1027.7 hPa ENE 7.0 mph /  11.3 km/h 7.0 mph /  11.3 km/h 96 % 0.00 in /  0 mm 0 W/m2
03:00 35.9 °F /  2.2 °C 34.9 °F /  1.6 °C 30.35 in /  1027.7 hPa ESE 7.0 mph /  11.3 km/h 15.0 mph /  24.1 km/h 96 % 0.00 in /  0 mm 0 W/m2
03:15 35.8 °F /  2.1 °C 34.8 °F /  1.6 °C 30.36 in /  1028 hPa NE 8.0 mph /  12.9 km/h 15.0 mph /  24.1 km/h 96 % 0.00 in /  0 mm 0 W/m2
03:20 35.7 °F /  2.1 °C 34.7 °F /  1.5 °C 30.36 in /  1028 hPa North 7.0 mph /  11.3 km/h 15.0 mph /  24.1 km/h 96 % 0.00 in /  0 mm 0 W/m2
03:25 35.5 °F /  1.9 °C 34.5 °F /  1.4 °C 30.36 in /  1028 hPa East 6.0 mph /  9.7 km/h 15.0 mph /  24.1 km/h 96 % 0.00 in /  0 mm 0 W/m2
03:30 35.2 °F /  1.8 °C 33.9 °F /  1.1 °C 30.36 in /  1028 hPa NE 7.0 mph /  11.3 km/h 7.0 mph /  11.3 km/h 95 % 0.00 in /  0 mm 0 W/m2
03:40 34.9 °F /  1.6 °C 33.9 °F /  1.1 °C 30.36 in /  1028 hPa NNE 7.0 mph /  11.3 km/h 7.0 mph /  11.3 km/h 96 % 0.00 in /  0 mm 0 W/m2
03:45 34.8 °F /  1.6 °C 33.5 °F /  0.8 °C 30.37 in /  1028.3 hPa ENE 7.0 mph /  11.3 km/h 8.0 mph /  12.9 km/h 95 % 0.00 in /  0 mm 0 W/m2
03:50 34.7 °F /  1.5 °C 33.7 °F /  0.9 °C 30.37 in /  1028.3 hPa ENE 7.0 mph /  11.3 km/h 15.0 mph /  24.1 km/h 96 % 0.00 in /  0 mm 0 W/m2
03:55 34.6 °F /  1.4 °C 33.6 °F /  0.9 °C 30.37 in /  1028.3 hPa East 8.0 mph /  12.9 km/h 15.0 mph /  24.1 km/h 96 % 0.00 in /  0 mm 0 W/m2
04:00 34.6 °F /  1.4 °C 33.6 °F /  0.9 °C 30.37 in /  1028.3 hPa ENE 7.0 mph /  11.3 km/h 7.0 mph /  11.3 km/h 96 % 0.00 in /  0 mm 0 W/m2
04:05 34.6 °F /  1.4 °C 33.6 °F /  0.9 °C 30.37 in /  1028.3 hPa ESE 7.0 mph /  11.3 km/h 15.0 mph /  24.1 km/h 96 % 0.00 in /  0 mm 0 W/m2
04:10 34.7 °F /  1.5 °C 33.7 °F /  0.9 °C 30.37 in /  1028.3 hPa NE 8.0 mph /  12.9 km/h 8.0 mph /  12.9 km/h 96 % 0.00 in /  0 mm 0 W/m2
04:15 34.7 °F /  1.5 °C 33.7 °F /  0.9 °C 30.37 in /  1028.3 hPa North 7.0 mph /  11.3 km/h 11.0 mph /  17.7 km/h 96 % 0.00 in /  0 mm 0 W/m2
04:20 34.7 °F /  1.5 °C 33.7 °F /  0.9 °C 30.37 in /  1028.3 hPa NE 7.0 mph /  11.3 km/h 7.0 mph /  11.3 km/h 96 % 0.00 in /  0 mm 0 W/m2
04:25 34.7 °F /  1.5 °C 33.7 °F /  0.9 °C 30.37 in /  1028.3 hPa ENE 6.0 mph /  9.7 km/h 15.0 mph /  24.1 km/h 96 % 0.00 in /  0 mm 0 W/m2
04:30 34.7 °F /  1.5 °C 33.7 °F /  0.9 °C 30.37 in /  1028.3 hPa NE 7.0 mph /  11.3 km/h 7.0 mph /  11.3 km/h 96 % 0.00 in /  0 mm 0 W/m2
04:35 34.7 °F /  1.5 °C 33.7 °F /  0.9 °C 30.37 in /  1028.3 hPa NE 9.0 mph /  14.5 km/h 11.0 mph /  17.7 km/h 96 % 0.00 in /  0 mm 0 W/m2
04:45 34.8 °F /  1.6 °C 33.8 °F /  1 °C 30.37 in /  1028.3 hPa ENE 8.0 mph /  12.9 km/h 15.0 mph /  24.1 km/h 96 % 0.00 in /  0 mm 0 W/m2
04:55 34.8 °F /  1.6 °C 33.8 °F /  1 °C 30.37 in /  1028.3 hPa NNE 8.0 mph /  12.9 km/h 15.0 mph /  24.1 km/h 96 % 0.00 in /  0 mm 0 W/m2
05:00 34.8 °F /  1.6 °C 33.8 °F /  1 °C 30.37 in /  1028.3 hPa ESE 6.0 mph /  9.7 km/h 6.0 mph /  9.7 km/h 96 % 0.00 in /  0 mm 0 W/m2
05:05 34.8 °F /  1.6 °C 33.5 °F /  0.8 °C 30.37 in /  1028.3 hPa NE 8.0 mph /  12.9 km/h 8.0 mph /  12.9 km/h 95 % 0.00 in /  0 mm 0 W/m2
05:10 34.8 °F /  1.6 °C 33.5 °F /  0.8 °C 30.37 in /  1028.3 hPa NE 8.0 mph /  12.9 km/h 15.0 mph /  24.1 km/h 95 % 0.00 in /  0 mm 0 W/m2
05:15 34.8 °F /  1.6 °C 33.5 °F /  0.8 °C 30.37 in /  1028.3 hPa NE 8.0 mph /  12.9 km/h 15.0 mph /  24.1 km/h 95 % 0.00 in /  0 mm 0 W/m2
05:20 34.8 °F /  1.6 °C 33.5 °F /  0.8 °C 30.37 in /  1028.3 hPa NNE 8.0 mph /  12.9 km/h 8.0 mph /  12.9 km/h 95 % 0.00 in /  0 mm 0 W/m2
05:25 34.8 °F /  1.6 °C 33.2 °F /  0.7 °C 30.37 in /  1028.3 hPa NNE 8.0 mph /  12.9 km/h 15.0 mph /  24.1 km/h 94 % 0.00 in /  0 mm 0 W/m2
05:35 34.8 °F /  1.6 °C 33.2 °F /  0.7 °C 30.37 in /  1028.3 hPa East 9.0 mph /  14.5 km/h 15.0 mph /  24.1 km/h 94 % 0.00 in /  0 mm 0 W/m2
05:40 34.8 °F /  1.6 °C 33.2 °F /  0.7 °C 30.36 in /  1028 hPa NNE 8.0 mph /  12.9 km/h 8.0 mph /  12.9 km/h 94 % 0.00 in /  0 mm 0 W/m2
05:45 34.8 °F /  1.6 °C 33.2 °F /  0.7 °C 30.36 in /  1028 hPa NNE 7.0 mph /  11.3 km/h 15.0 mph /  24.1 km/h 94 % 0.00 in /  0 mm 0 W/m2
05:50 34.7 °F /  1.5 °C 33.2 °F /  0.7 °C 30.37 in /  1028.3 hPa East 6.0 mph /  9.7 km/h 15.0 mph /  24.1 km/h 94 % 0.00 in /  0 mm 0 W/m2
06:00 34.7 °F /  1.5 °C 33.2 °F /  0.7 °C 30.37 in /  1028.3 hPa NNE 6.0 mph /  9.7 km/h 15.0 mph /  24.1 km/h 94 % 0.00 in /  0 mm 0 W/m2
06:10 34.6 °F /  1.4 °C 33.1 °F /  0.6 °C 30.37 in /  1028.3 hPa North 6.0 mph /  9.7 km/h 15.0 mph /  24.1 km/h 94 % 0.00 in /  0 mm 0 W/m2
06:15 34.6 °F /  1.4 °C 33.1 °F /  0.6 °C 30.37 in /  1028.3 hPa East 8.0 mph /  12.9 km/h 15.0 mph /  24.1 km/h 94 % 0.00 in /  0 mm 0 W/m2
06:20 34.6 °F /  1.4 °C 33.1 °F /  0.6 °C 30.37 in /  1028.3 hPa ENE 8.0 mph /  12.9 km/h 8.0 mph /  12.9 km/h 94 % 0.00 in /  0 mm 0 W/m2
06:25 34.5 °F /  1.4 °C 33.0 °F /  0.6 °C 30.37 in /  1028.3 hPa North 7.0 mph /  11.3 km/h 15.0 mph /  24.1 km/h 94 % 0.00 in /  0 mm 0 W/m2
06:30 34.5 °F /  1.4 °C 33.0 °F /  0.6 °C 30.37 in /  1028.3 hPa NNE 7.0 mph /  11.3 km/h 15.0 mph /  24.1 km/h 94 % 0.00 in /  0 mm 0 W/m2
06:35 34.5 °F /  1.4 °C 33.0 °F /  0.6 °C 30.37 in /  1028.3 hPa ENE 7.0 mph /  11.3 km/h 15.0 mph /  24.1 km/h 94 % 0.00 in /  0 mm 0 W/m2
06:40 34.6 °F /  1.4 °C 33.1 °F /  0.6 °C 30.37 in /  1028.3 hPa ENE 6.0 mph /  9.7 km/h 15.0 mph /  24.1 km/h 94 % 0.00 in /  0 mm 0 W/m2
06:45 34.5 °F /  1.4 °C 33.0 °F /  0.6 °C 30.38 in /  1028.7 hPa NNE 5.0 mph /  8 km/h 15.0 mph /  24.1 km/h 94 % 0.00 in /  0 mm 0 W/m2
06:50 34.5 °F /  1.4 °C 33.0 °F /  0.6 °C 30.38 in /  1028.7 hPa NE 7.0 mph /  11.3 km/h 15.0 mph /  24.1 km/h 94 % 0.00 in /  0 mm 0 W/m2
07:00 34.5 °F /  1.4 °C 33.0 °F /  0.6 °C 30.38 in /  1028.7 hPa North 10.0 mph /  16.1 km/h 15.0 mph /  24.1 km/h 94 % 0.00 in /  0 mm 0 W/m2
07:10 34.4 °F /  1.3 °C 32.9 °F /  0.5 °C 30.38 in /  1028.7 hPa NE 9.0 mph /  14.5 km/h 15.0 mph /  24.1 km/h 94 % 0.00 in /  0 mm 0 W/m2
07:15 34.4 °F /  1.3 °C 32.9 °F /  0.5 °C 30.38 in /  1028.7 hPa NNE 9.0 mph /  14.5 km/h 15.0 mph /  24.1 km/h 94 % 0.00 in /  0 mm 0 W/m2
07:20 34.4 °F /  1.3 °C 32.9 °F /  0.5 °C 30.38 in /  1028.7 hPa NE 8.0 mph /  12.9 km/h 15.0 mph /  24.1 km/h 94 % 0.00 in /  0 mm 0 W/m2
07:25 34.4 °F /  1.3 °C 32.9 °F /  0.5 °C 30.38 in /  1028.7 hPa NE 7.0 mph /  11.3 km/h 15.0 mph /  24.1 km/h 94 % 0.00 in /  0 mm 0 W/m2
07:30 34.4 °F /  1.3 °C 32.9 °F /  0.5 °C 30.38 in /  1028.7 hPa NNE 6.0 mph /  9.7 km/h 15.0 mph /  24.1 km/h 94 % 0.00 in /  0 mm 0 W/m2
07:40 34.4 °F /  1.3 °C 32.9 °F /  0.5 °C 30.38 in /  1028.7 hPa NE 5.0 mph /  8 km/h 15.0 mph /  24.1 km/h 94 % 0.00 in /  0 mm 0 W/m2
07:45 34.4 °F /  1.3 °C 32.9 °F /  0.5 °C 30.38 in /  1028.7 hPa NNE 7.0 mph /  11.3 km/h 15.0 mph /  24.1 km/h 94 % 0.00 in /  0 mm 0 W/m2
07:50 34.4 °F /  1.3 °C 32.9 °F /  0.5 °C 30.38 in /  1028.7 hPa ENE 7.0 mph /  11.3 km/h 7.0 mph /  11.3 km/h 94 % 0.00 in /  0 mm 0 W/m2
07:55 34.4 °F /  1.3 °C 32.9 °F /  0.5 °C 30.38 in /  1028.7 hPa NNE 6.0 mph /  9.7 km/h 15.0 mph /  24.1 km/h 94 % 0.00 in /  0 mm 0 W/m2
08:00 34.5 °F /  1.4 °C 33.0 °F /  0.6 °C 30.38 in /  1028.7 hPa East 7.0 mph /  11.3 km/h 15.0 mph /  24.1 km/h 94 % 0.00 in /  0 mm 0 W/m2
08:10 34.5 °F /  1.4 °C 33.0 °F /  0.6 °C 30.38 in /  1028.7 hPa ENE 7.0 mph /  11.3 km/h 7.0 mph /  11.3 km/h 94 % 0.00 in /  0 mm 0 W/m2
08:15 34.5 °F /  1.4 °C 33.0 °F /  0.6 °C 30.38 in /  1028.7 hPa NE 6.0 mph /  9.7 km/h 15.0 mph /  24.1 km/h 94 % 0.00 in /  0 mm 0 W/m2
08:20 34.6 °F /  1.4 °C 33.1 °F /  0.6 °C 30.38 in /  1028.7 hPa NE 6.0 mph /  9.7 km/h 15.0 mph /  24.1 km/h 94 % 0.00 in /  0 mm 5 W/m2
08:25 34.6 °F /  1.4 °C 33.1 °F /  0.6 °C 30.37 in /  1028.3 hPa NNE 7.0 mph /  11.3 km/h 15.0 mph /  24.1 km/h 94 % 0.00 in /  0 mm 5 W/m2
08:35 34.6 °F /  1.4 °C 32.8 °F /  0.4 °C 30.37 in /  1028.3 hPa ENE 6.0 mph /  9.7 km/h 8.0 mph /  12.9 km/h 93 % 0.00 in /  0 mm 9 W/m2
08:40 34.7 °F /  1.5 °C 32.9 °F /  0.5 °C 30.37 in /  1028.3 hPa ENE 7.0 mph /  11.3 km/h 7.0 mph /  11.3 km/h 93 % 0.00 in /  0 mm 7 W/m2
08:45 34.7 °F /  1.5 °C 32.9 °F /  0.5 °C 30.37 in /  1028.3 hPa NE 7.0 mph /  11.3 km/h 9.0 mph /  14.5 km/h 93 % 0.00 in /  0 mm 7 W/m2
08:50 34.7 °F /  1.5 °C 32.9 °F /  0.5 °C 30.37 in /  1028.3 hPa NE 7.0 mph /  11.3 km/h 15.0 mph /  24.1 km/h 93 % 0.00 in /  0 mm 7 W/m2
08:55 34.7 °F /  1.5 °C 32.9 °F /  0.5 °C 30.37 in /  1028.3 hPa ENE 8.0 mph /  12.9 km/h 15.0 mph /  24.1 km/h 93 % 0.00 in /  0 mm 7 W/m2
09:00 34.7 °F /  1.5 °C 32.9 °F /  0.5 °C 30.37 in /  1028.3 hPa North 7.0 mph /  11.3 km/h 7.0 mph /  11.3 km/h 93 % 0.00 in /  0 mm 9 W/m2
09:10 34.7 °F /  1.5 °C 33.2 °F /  0.7 °C 30.36 in /  1028 hPa ENE 6.0 mph /  9.7 km/h 15.0 mph /  24.1 km/h 94 % 0.00 in /  0 mm 12 W/m2
09:15 34.7 °F /  1.5 °C 33.2 °F /  0.7 °C 30.36 in /  1028 hPa NNW 6.0 mph /  9.7 km/h 15.0 mph /  24.1 km/h 94 % 0.00 in /  0 mm 11 W/m2
09:25 34.6 °F /  1.4 °C 33.1 °F /  0.6 °C 30.36 in /  1028 hPa ENE 6.0 mph /  9.7 km/h 15.0 mph /  24.1 km/h 94 % 0.00 in /  0 mm 14 W/m2
09:30 34.5 °F /  1.4 °C 33.0 °F /  0.6 °C 30.36 in /  1028 hPa North 5.0 mph /  8 km/h 5.0 mph /  8 km/h 94 % 0.00 in /  0 mm 7 W/m2
09:40 34.5 °F /  1.4 °C 33.2 °F /  0.7 °C 30.36 in /  1028 hPa NE 5.0 mph /  8 km/h 15.0 mph /  24.1 km/h 95 % 0.00 in /  0 mm 14 W/m2
09:45 34.5 °F /  1.4 °C 33.2 °F /  0.7 °C 30.36 in /  1028 hPa NE 5.0 mph /  8 km/h 15.0 mph /  24.1 km/h 95 % 0.00 in /  0 mm 12 W/m2
09:50 34.7 °F /  1.5 °C 33.4 °F /  0.8 °C 30.36 in /  1028 hPa NNE 7.0 mph /  11.3 km/h 16.0 mph /  25.7 km/h 95 % 0.00 in /  0 mm 12 W/m2
10:00 34.9 °F /  1.6 °C 33.6 °F /  0.9 °C 30.35 in /  1027.7 hPa NNE 6.0 mph /  9.7 km/h 15.0 mph /  24.1 km/h 95 % 0.00 in /  0 mm 14 W/m2
10:05 34.9 °F /  1.6 °C 33.6 °F /  0.9 °C 30.35 in /  1027.7 hPa NE 7.0 mph /  11.3 km/h 15.0 mph /  24.1 km/h 95 % 0.00 in /  0 mm 18 W/m2
10:10 34.9 °F /  1.6 °C 33.6 °F /  0.9 °C 30.35 in /  1027.7 hPa NNE 8.0 mph /  12.9 km/h 15.0 mph /  24.1 km/h 95 % 0.00 in /  0 mm 19 W/m2
10:15 34.9 °F /  1.6 °C 33.6 °F /  0.9 °C 30.35 in /  1027.7 hPa NE 8.0 mph /  12.9 km/h 15.0 mph /  24.1 km/h 95 % 0.00 in /  0 mm 16 W/m2
10:20 34.9 °F /  1.6 °C 33.6 °F /  0.9 °C 30.35 in /  1027.7 hPa ENE 8.0 mph /  12.9 km/h 15.0 mph /  24.1 km/h 95 % 0.00 in /  0 mm 14 W/m2
10:30 35.0 °F /  1.7 °C 34.0 °F /  1.1 °C 30.35 in /  1027.7 hPa ENE 9.0 mph /  14.5 km/h 9.0 mph /  14.5 km/h 96 % 0.00 in /  0 mm 32 W/m2
10:40 35.1 °F /  1.7 °C 34.1 °F /  1.2 °C 30.35 in /  1027.7 hPa NNE 8.0 mph /  12.9 km/h 8.0 mph /  12.9 km/h 96 % 0.00 in /  0 mm 39 W/m2
10:45 35.1 °F /  1.7 °C 34.1 °F /  1.2 °C 30.35 in /  1027.7 hPa ENE 8.0 mph /  12.9 km/h 15.0 mph /  24.1 km/h 96 % 0.00 in /  0 mm 21 W/m2
10:50 35.1 °F /  1.7 °C 34.1 °F /  1.2 °C 30.35 in /  1027.7 hPa NE 7.0 mph /  11.3 km/h 15.0 mph /  24.1 km/h 96 % 0.00 in /  0 mm 23 W/m2
10:55 35.2 °F /  1.8 °C 34.2 °F /  1.2 °C 30.35 in /  1027.7 hPa NE 7.0 mph /  11.3 km/h 15.0 mph /  24.1 km/h 96 % 0.00 in /  0 mm 18 W/m2
11:00 35.3 °F /  1.8 °C 34.3 °F /  1.3 °C 30.35 in /  1027.7 hPa SE 7.0 mph /  11.3 km/h 7.0 mph /  11.3 km/h 96 % 0.00 in /  0 mm 16 W/m2
11:05 35.3 °F /  1.8 °C 34.3 °F /  1.3 °C 30.34 in /  1027.3 hPa NE 7.0 mph /  11.3 km/h 12.0 mph /  19.3 km/h 96 % 0.00 in /  0 mm 23 W/m2
11:15 35.2 °F /  1.8 °C 34.2 °F /  1.2 °C 30.34 in /  1027.3 hPa NE 7.0 mph /  11.3 km/h 15.0 mph /  24.1 km/h 96 % 0.00 in /  0 mm 19 W/m2
11:20 35.2 °F /  1.8 °C 34.2 °F /  1.2 °C 30.34 in /  1027.3 hPa NNE 7.0 mph /  11.3 km/h 15.0 mph /  24.1 km/h 96 % 0.00 in /  0 mm 18 W/m2
11:25 35.2 °F /  1.8 °C 34.2 °F /  1.2 °C 30.34 in /  1027.3 hPa NE 7.0 mph /  11.3 km/h 15.0 mph /  24.1 km/h 96 % 0.00 in /  0 mm 19 W/m2
11:35 35.4 °F /  1.9 °C 34.4 °F /  1.3 °C 30.34 in /  1027.3 hPa ENE 7.0 mph /  11.3 km/h 8.0 mph /  12.9 km/h 96 % 0.00 in /  0 mm 23 W/m2
11:40 35.5 °F /  1.9 °C 34.5 °F /  1.4 °C 30.33 in /  1027 hPa ENE 6.0 mph /  9.7 km/h 6.0 mph /  9.7 km/h 96 % 0.00 in /  0 mm 23 W/m2
11:45 35.7 °F /  2.1 °C 34.7 °F /  1.5 °C 30.33 in /  1027 hPa NE 7.0 mph /  11.3 km/h 12.0 mph /  19.3 km/h 96 % 0.00 in /  0 mm 32 W/m2
11:50 35.7 °F /  2.1 °C 34.7 °F /  1.5 °C 30.33 in /  1027 hPa ENE 8.0 mph /  12.9 km/h 15.0 mph /  24.1 km/h 96 % 0.00 in /  0 mm 32 W/m2
11:55 35.8 °F /  2.1 °C 34.8 °F /  1.6 °C 30.33 in /  1027 hPa ENE 10.0 mph /  16.1 km/h 15.0 mph /  24.1 km/h 96 % 0.00 in /  0 mm 19 W/m2
12:00 35.9 °F /  2.2 °C 34.9 °F /  1.6 °C 30.33 in /  1027 hPa NE 8.0 mph /  12.9 km/h 8.0 mph /  12.9 km/h 96 % 0.00 in /  0 mm 12 W/m2
12:05 35.9 °F /  2.2 °C 34.9 °F /  1.6 °C 30.33 in /  1027 hPa NE 7.0 mph /  11.3 km/h 9.0 mph /  14.5 km/h 96 % 0.00 in /  0 mm 19 W/m2
12:10 35.9 °F /  2.2 °C 34.9 °F /  1.6 °C 30.33 in /  1027 hPa NE 8.0 mph /  12.9 km/h 15.0 mph /  24.1 km/h 96 % 0.00 in /  0 mm 46 W/m2
12:20 35.8 °F /  2.1 °C 34.8 °F /  1.6 °C 30.32 in /  1026.6 hPa East 8.0 mph /  12.9 km/h 8.0 mph /  12.9 km/h 96 % 0.00 in /  0 mm 26 W/m2
12:25 35.8 °F /  2.1 °C 34.8 °F /  1.6 °C 30.32 in /  1026.6 hPa East 8.0 mph /  12.9 km/h 15.0 mph /  24.1 km/h 96 % 0.00 in /  0 mm 32 W/m2
12:30 35.7 °F /  2.1 °C 34.7 °F /  1.5 °C 30.32 in /  1026.6 hPa NE 8.0 mph /  12.9 km/h 8.0 mph /  12.9 km/h 96 % 0.00 in /  0 mm 33 W/m2
12:35 35.7 °F /  2.1 °C 34.7 °F /  1.5 °C 30.32 in /  1026.6 hPa ESE 7.0 mph /  11.3 km/h 14.0 mph /  22.5 km/h 96 % 0.00 in /  0 mm 40 W/m2
12:40 35.7 °F /  2.1 °C 34.7 °F /  1.5 °C 30.32 in /  1026.6 hPa NE 8.0 mph /  12.9 km/h 15.0 mph /  24.1 km/h 96 % 0.00 in /  0 mm 26 W/m2
12:50 35.8 °F /  2.1 °C 34.8 °F /  1.6 °C 30.32 in /  1026.6 hPa ENE 8.0 mph /  12.9 km/h 15.0 mph /  24.1 km/h 96 % 0.00 in /  0 mm 16 W/m2
12:55 35.9 °F /  2.2 °C 34.9 °F /  1.6 °C 30.31 in /  1026.3 hPa ENE 8.0 mph /  12.9 km/h 15.0 mph /  24.1 km/h 96 % 0.00 in /  0 mm 16 W/m2
13:05 35.7 °F /  2.1 °C 34.7 °F /  1.5 °C 30.31 in /  1026.3 hPa ENE 11.0 mph /  17.7 km/h 15.0 mph /  24.1 km/h 96 % 0.00 in /  0 mm 14 W/m2
13:10 35.7 °F /  2.1 °C 34.7 °F /  1.5 °C 30.31 in /  1026.3 hPa East 10.0 mph /  16.1 km/h 10.0 mph /  16.1 km/h 96 % 0.00 in /  0 mm 12 W/m2
13:15 35.7 °F /  2.1 °C 34.7 °F /  1.5 °C 30.31 in /  1026.3 hPa NE 8.0 mph /  12.9 km/h 15.0 mph /  24.1 km/h 96 % 0.00 in /  0 mm 11 W/m2
13:20 35.6 °F /  2 °C 34.6 °F /  1.4 °C 30.31 in /  1026.3 hPa East 8.0 mph /  12.9 km/h 8.0 mph /  12.9 km/h 96 % 0.00 in /  0 mm 11 W/m2
13:30 35.6 °F /  2 °C 34.6 °F /  1.4 °C 30.31 in /  1026.3 hPa ENE 8.0 mph /  12.9 km/h 15.0 mph /  24.1 km/h 96 % 0.00 in /  0 mm 11 W/m2
13:35 35.6 °F /  2 °C 34.6 °F /  1.4 °C 30.31 in /  1026.3 hPa NE 8.0 mph /  12.9 km/h 15.0 mph /  24.1 km/h 96 % 0.00 in /  0 mm 16 W/m2
13:40 35.5 °F /  1.9 °C 34.5 °F /  1.4 °C 30.31 in /  1026.3 hPa ENE 7.0 mph /  11.3 km/h 15.0 mph /  24.1 km/h 96 % 0.00 in /  0 mm 12 W/m2
13:45 35.5 °F /  1.9 °C 34.5 °F /  1.4 °C 30.31 in /  1026.3 hPa East 7.0 mph /  11.3 km/h 15.0 mph /  24.1 km/h 96 % 0.00 in /  0 mm 14 W/m2
13:55 35.6 °F /  2 °C 34.8 °F /  1.6 °C 30.31 in /  1026.3 hPa SSE 8.0 mph /  12.9 km/h 15.0 mph /  24.1 km/h 97 % 0.00 in /  0 mm 9 W/m2
14:00 35.6 °F /  2 °C 34.8 °F /  1.6 °C 30.31 in /  1026.3 hPa East 7.0 mph /  11.3 km/h 7.0 mph /  11.3 km/h 97 % 0.00 in /  0 mm 9 W/m2
14:10 35.7 °F /  2.1 °C 34.9 °F /  1.6 °C 30.31 in /  1026.3 hPa ESE 7.0 mph /  11.3 km/h 7.0 mph /  11.3 km/h 97 % 0.00 in /  0 mm 9 W/m2
14:15 35.8 °F /  2.1 °C 35.0 °F /  1.7 °C 30.31 in /  1026.3 hPa East 6.0 mph /  9.7 km/h 15.0 mph /  24.1 km/h 97 % 0.00 in /  0 mm 9 W/m2
14:20 35.8 °F /  2.1 °C 35.0 °F /  1.7 °C 30.31 in /  1026.3 hPa NE 6.0 mph /  9.7 km/h 15.0 mph /  24.1 km/h 97 % 0.00 in /  0 mm 7 W/m2
14:25 35.9 °F /  2.2 °C 35.1 °F /  1.7 °C 30.31 in /  1026.3 hPa ENE 6.0 mph /  9.7 km/h 15.0 mph /  24.1 km/h 97 % 0.00 in /  0 mm 7 W/m2
14:30 35.9 °F /  2.2 °C 35.1 °F /  1.7 °C 30.31 in /  1026.3 hPa ENE 7.0 mph /  11.3 km/h 15.0 mph /  24.1 km/h 97 % 0.00 in /  0 mm 7 W/m2
14:35 35.9 °F /  2.2 °C 35.1 °F /  1.7 °C 30.31 in /  1026.3 hPa SSE 7.0 mph /  11.3 km/h 15.0 mph /  24.1 km/h 97 % 0.00 in /  0 mm 7 W/m2
14:40 36.0 °F /  2.2 °C 35.2 °F /  1.8 °C 30.31 in /  1026.3 hPa ENE 7.0 mph /  11.3 km/h 7.0 mph /  11.3 km/h 97 % 0.00 in /  0 mm 7 W/m2
14:50 36.0 °F /  2.2 °C 35.2 °F /  1.8 °C 30.30 in /  1026 hPa East 5.0 mph /  8 km/h 6.0 mph /  9.7 km/h 97 % 0.00 in /  0 mm 5 W/m2
14:55 36.0 °F /  2.2 °C 35.2 °F /  1.8 °C 30.31 in /  1026.3 hPa East 5.0 mph /  8 km/h 5.0 mph /  8 km/h 97 % 0.00 in /  0 mm 5 W/m2
15:00 36.1 °F /  2.3 °C 35.3 °F /  1.8 °C 30.31 in /  1026.3 hPa ENE 6.0 mph /  9.7 km/h 12.0 mph /  19.3 km/h 97 % 0.00 in /  0 mm 0 W/m2
15:10 36.3 °F /  2.4 °C 35.5 °F /  1.9 °C 30.31 in /  1026.3 hPa SE 7.0 mph /  11.3 km/h 7.0 mph /  11.3 km/h 97 % 0.00 in /  0 mm 0 W/m2
15:20 36.5 °F /  2.5 °C 35.7 °F /  2.1 °C 30.30 in /  1026 hPa East 7.0 mph /  11.3 km/h 7.0 mph /  11.3 km/h 97 % 0.00 in /  0 mm 5 W/m2
15:25 36.5 °F /  2.5 °C 35.7 °F /  2.1 °C 30.30 in /  1026 hPa East 6.0 mph /  9.7 km/h 7.0 mph /  11.3 km/h 97 % 0.00 in /  0 mm 5 W/m2
15:30 36.5 °F /  2.5 °C 35.7 °F /  2.1 °C 30.30 in /  1026 hPa NE 7.0 mph /  11.3 km/h 9.0 mph /  14.5 km/h 97 % 0.00 in /  0 mm 5 W/m2
15:40 36.6 °F /  2.6 °C 35.8 °F /  2.1 °C 30.30 in /  1026 hPa ESE 7.0 mph /  11.3 km/h 14.0 mph /  22.5 km/h 97 % 0.00 in /  0 mm 5 W/m2
15:45 36.6 °F /  2.6 °C 35.8 °F /  2.1 °C 30.30 in /  1026 hPa East 7.0 mph /  11.3 km/h 14.0 mph /  22.5 km/h 97 % 0.00 in /  0 mm 0 W/m2
15:50 36.6 °F /  2.6 °C 35.8 °F /  2.1 °C 30.30 in /  1026 hPa SE 7.0 mph /  11.3 km/h 14.0 mph /  22.5 km/h 97 % 0.00 in /  0 mm 5 W/m2
15:55 36.6 °F /  2.6 °C 35.8 °F /  2.1 °C 30.30 in /  1026 hPa ENE 8.0 mph /  12.9 km/h 15.0 mph /  24.1 km/h 97 % 0.00 in /  0 mm 0 W/m2
16:05 36.6 °F /  2.6 °C 35.8 °F /  2.1 °C 30.30 in /  1026 hPa East 8.0 mph /  12.9 km/h 14.0 mph /  22.5 km/h 97 % 0.00 in /  0 mm 0 W/m2
16:10 36.6 °F /  2.6 °C 35.8 °F /  2.1 °C 30.30 in /  1026 hPa ENE 7.0 mph /  11.3 km/h 14.0 mph /  22.5 km/h 97 % 0.00 in /  0 mm 0 W/m2
16:15 36.6 °F /  2.6 °C 35.8 °F /  2.1 °C 30.30 in /  1026 hPa East 7.0 mph /  11.3 km/h 14.0 mph /  22.5 km/h 97 % 0.00 in /  0 mm 0 W/m2
16:25 36.6 °F /  2.6 °C 35.8 °F /  2.1 °C 30.30 in /  1026 hPa East 7.0 mph /  11.3 km/h 9.0 mph /  14.5 km/h 97 % 0.00 in /  0 mm 0 W/m2
16:30 36.6 °F /  2.6 °C 35.8 °F /  2.1 °C 30.31 in /  1026.3 hPa ENE 7.0 mph /  11.3 km/h 14.0 mph /  22.5 km/h 97 % 0.00 in /  0 mm 0 W/m2
16:35 36.6 °F /  2.6 °C 35.8 °F /  2.1 °C 30.31 in /  1026.3 hPa ENE 8.0 mph /  12.9 km/h 14.0 mph /  22.5 km/h 97 % 0.00 in /  0 mm 0 W/m2
16:45 36.6 °F /  2.6 °C 35.8 °F /  2.1 °C 30.30 in /  1026 hPa ENE 9.0 mph /  14.5 km/h 14.0 mph /  22.5 km/h 97 % 0.00 in /  0 mm 0 W/m2
16:50 36.5 °F /  2.5 °C 35.7 °F /  2.1 °C 30.31 in /  1026.3 hPa ENE 10.0 mph /  16.1 km/h 14.0 mph /  22.5 km/h 97 % 0.00 in /  0 mm 0 W/m2
16:55 36.5 °F /  2.5 °C 35.7 °F /  2.1 °C 30.31 in /  1026.3 hPa SE 9.0 mph /  14.5 km/h 14.0 mph /  22.5 km/h 97 % 0.00 in /  0 mm 0 W/m2
17:05 36.4 °F /  2.4 °C 35.4 °F /  1.9 °C 30.31 in /  1026.3 hPa ESE 8.0 mph /  12.9 km/h 14.0 mph /  22.5 km/h 96 % 0.00 in /  0 mm 0 W/m2
17:10 36.4 °F /  2.4 °C 35.4 °F /  1.9 °C 30.31 in /  1026.3 hPa East 9.0 mph /  14.5 km/h 9.0 mph /  14.5 km/h 96 % 0.00 in /  0 mm 0 W/m2
17:15 36.4 °F /  2.4 °C 35.4 °F /  1.9 °C 30.31 in /  1026.3 hPa ENE 9.0 mph /  14.5 km/h 14.0 mph /  22.5 km/h 96 % 0.00 in /  0 mm 0 W/m2
17:20 36.4 °F /  2.4 °C 35.4 °F /  1.9 °C 30.31 in /  1026.3 hPa East 8.0 mph /  12.9 km/h 8.0 mph /  12.9 km/h 96 % 0.00 in /  0 mm 0 W/m2
17:30 36.4 °F /  2.4 °C 35.6 °F /  2 °C 30.32 in /  1026.6 hPa ESE 8.0 mph /  12.9 km/h 8.0 mph /  12.9 km/h 97 % 0.00 in /  0 mm 0 W/m2
17:35 36.4 °F /  2.4 °C 35.6 °F /  2 °C 30.32 in /  1026.6 hPa SE 9.0 mph /  14.5 km/h 9.0 mph /  14.5 km/h 97 % 0.00 in /  0 mm 0 W/m2
17:40 36.4 °F /  2.4 °C 35.4 °F /  1.9 °C 30.32 in /  1026.6 hPa ESE 9.0 mph /  14.5 km/h 9.0 mph /  14.5 km/h 96 % 0.00 in /  0 mm 0 W/m2
17:45 36.5 °F /  2.5 °C 35.5 °F /  1.9 °C 30.32 in /  1026.6 hPa ESE 9.0 mph /  14.5 km/h 10.0 mph /  16.1 km/h 96 % 0.00 in /  0 mm 0 W/m2
17:50 36.5 °F /  2.5 °C 35.5 °F /  1.9 °C 30.32 in /  1026.6 hPa SE 9.0 mph /  14.5 km/h 14.0 mph /  22.5 km/h 96 % 0.00 in /  0 mm 0 W/m2
18:00 36.5 °F /  2.5 °C 35.5 °F /  1.9 °C 30.32 in /  1026.6 hPa SSE 10.0 mph /  16.1 km/h 14.0 mph /  22.5 km/h 96 % 0.00 in /  0 mm 0 W/m2
18:05 36.5 °F /  2.5 °C 35.5 °F /  1.9 °C 30.32 in /  1026.6 hPa ESE 10.0 mph /  16.1 km/h 14.0 mph /  22.5 km/h 96 % 0.00 in /  0 mm 0 W/m2
18:15 36.6 °F /  2.6 °C 35.6 °F /  2 °C 30.32 in /  1026.6 hPa East 9.0 mph /  14.5 km/h 14.0 mph /  22.5 km/h 96 % 0.00 in /  0 mm 0 W/m2
18:20 36.6 °F /  2.6 °C 35.6 °F /  2 °C 30.32 in /  1026.6 hPa ENE 9.0 mph /  14.5 km/h 14.0 mph /  22.5 km/h 96 % 0.00 in /  0 mm 0 W/m2
18:25 36.6 °F /  2.6 °C 35.6 °F /  2 °C 30.32 in /  1026.6 hPa East 8.0 mph /  12.9 km/h 14.0 mph /  22.5 km/h 96 % 0.00 in /  0 mm 0 W/m2
18:35 36.6 °F /  2.6 °C 35.6 °F /  2 °C 30.33 in /  1027 hPa ESE 7.0 mph /  11.3 km/h 14.0 mph /  22.5 km/h 96 % 0.00 in /  0 mm 0 W/m2
18:40 36.6 °F /  2.6 °C 35.6 °F /  2 °C 30.33 in /  1027 hPa East 7.0 mph /  11.3 km/h 14.0 mph /  22.5 km/h 96 % 0.00 in /  0 mm 0 W/m2
18:45 36.6 °F /  2.6 °C 35.6 °F /  2 °C 30.33 in /  1027 hPa East 8.0 mph /  12.9 km/h 14.0 mph /  22.5 km/h 96 % 0.00 in /  0 mm 0 W/m2
18:55 36.6 °F /  2.6 °C 35.6 °F /  2 °C 30.33 in /  1027 hPa ESE 7.0 mph /  11.3 km/h 14.0 mph /  22.5 km/h 96 % 0.00 in /  0 mm 0 W/m2
19:00 36.7 °F /  2.6 °C 35.7 °F /  2.1 °C 30.33 in /  1027 hPa ESE 7.0 mph /  11.3 km/h 7.0 mph /  11.3 km/h 96 % 0.00 in /  0 mm 0 W/m2
19:05 36.7 °F /  2.6 °C 35.7 °F /  2.1 °C 30.34 in /  1027.3 hPa ENE 7.0 mph /  11.3 km/h 8.0 mph /  12.9 km/h 96 % 0.00 in /  0 mm 0 W/m2
19:10 36.7 °F /  2.6 °C 35.7 °F /  2.1 °C 30.34 in /  1027.3 hPa ESE 8.0 mph /  12.9 km/h 8.0 mph /  12.9 km/h 96 % 0.00 in /  0 mm 0 W/m2
19:20 36.7 °F /  2.6 °C 35.7 °F /  2.1 °C 30.33 in /  1027 hPa SSE 9.0 mph /  14.5 km/h 9.0 mph /  14.5 km/h 96 % 0.00 in /  0 mm 0 W/m2
19:25 36.7 °F /  2.6 °C 35.7 °F /  2.1 °C 30.34 in /  1027.3 hPa ENE 9.0 mph /  14.5 km/h 14.0 mph /  22.5 km/h 96 % 0.00 in /  0 mm 0 W/m2
19:30 36.7 °F /  2.6 °C 35.7 °F /  2.1 °C 30.34 in /  1027.3 hPa East 10.0 mph /  16.1 km/h 10.0 mph /  16.1 km/h 96 % 0.00 in /  0 mm 0 W/m2
19:40 36.8 °F /  2.7 °C 35.8 °F /  2.1 °C 30.34 in /  1027.3 hPa NE 8.0 mph /  12.9 km/h 8.0 mph /  12.9 km/h 96 % 0.00 in /  0 mm 0 W/m2
19:45 36.8 °F /  2.7 °C 35.8 °F /  2.1 °C 30.34 in /  1027.3 hPa ENE 8.0 mph /  12.9 km/h 14.0 mph /  22.5 km/h 96 % 0.00 in /  0 mm 0 W/m2
19:50 36.9 °F /  2.7 °C 35.9 °F /  2.2 °C 30.34 in /  1027.3 hPa East 7.0 mph /  11.3 km/h 7.0 mph /  11.3 km/h 96 % 0.00 in /  0 mm 0 W/m2
20:00 36.9 °F /  2.7 °C 35.9 °F /  2.2 °C 30.35 in /  1027.7 hPa ENE 7.0 mph /  11.3 km/h 7.0 mph /  11.3 km/h 96 % 0.00 in /  0 mm 0 W/m2
20:05 36.9 °F /  2.7 °C 35.9 °F /  2.2 °C 30.35 in /  1027.7 hPa ENE 7.0 mph /  11.3 km/h 11.0 mph /  17.7 km/h 96 % 0.00 in /  0 mm 0 W/m2
20:10 36.9 °F /  2.7 °C 35.9 °F /  2.2 °C 30.35 in /  1027.7 hPa East 7.0 mph /  11.3 km/h 14.0 mph /  22.5 km/h 96 % 0.00 in /  0 mm 0 W/m2
20:20 36.9 °F /  2.7 °C 35.6 °F /  2 °C 30.36 in /  1028 hPa ESE 9.0 mph /  14.5 km/h 9.0 mph /  14.5 km/h 95 % 0.00 in /  0 mm 0 W/m2
20:25 36.9 °F /  2.7 °C 35.6 °F /  2 °C 30.36 in /  1028 hPa East 9.0 mph /  14.5 km/h 14.0 mph /  22.5 km/h 95 % 0.00 in /  0 mm 0 W/m2
20:40 36.9 °F /  2.7 °C 35.6 °F /  2 °C 30.36 in /  1028 hPa SE 9.0 mph /  14.5 km/h 14.0 mph /  22.5 km/h 95 % 0.00 in /  0 mm 0 W/m2
20:45 36.9 °F /  2.7 °C 35.6 °F /  2 °C 30.37 in /  1028.3 hPa ESE 9.0 mph /  14.5 km/h 14.0 mph /  22.5 km/h 95 % 0.00 in /  0 mm 0 W/m2
20:50 36.9 °F /  2.7 °C 35.6 °F /  2 °C 30.37 in /  1028.3 hPa East 9.0 mph /  14.5 km/h 9.0 mph /  14.5 km/h 95 % 0.00 in /  0 mm 0 W/m2
20:55 36.9 °F /  2.7 °C 35.6 °F /  2 °C 30.37 in /  1028.3 hPa East 8.0 mph /  12.9 km/h 14.0 mph /  22.5 km/h 95 % 0.00 in /  0 mm 0 W/m2
21:05 36.9 °F /  2.7 °C 35.6 °F /  2 °C 30.37 in /  1028.3 hPa SSE 7.0 mph /  11.3 km/h 14.0 mph /  22.5 km/h 95 % 0.00 in /  0 mm 0 W/m2
21:10 36.9 °F /  2.7 °C 35.6 °F /  2 °C 30.36 in /  1028 hPa SE 6.0 mph /  9.7 km/h 14.0 mph /  22.5 km/h 95 % 0.00 in /  0 mm 0 W/m2
21:15 36.9 °F /  2.7 °C 35.6 °F /  2 °C 30.36 in /  1028 hPa East 6.0 mph /  9.7 km/h 14.0 mph /  22.5 km/h 95 % 0.00 in /  0 mm 0 W/m2
21:20 36.9 °F /  2.7 °C 35.6 °F /  2 °C 30.36 in /  1028 hPa ESE 5.0 mph /  8 km/h 5.0 mph /  8 km/h 95 % 0.00 in /  0 mm 0 W/m2
21:25 36.9 °F /  2.7 °C 35.6 °F /  2 °C 30.36 in /  1028 hPa ESE 5.0 mph /  8 km/h 14.0 mph /  22.5 km/h 95 % 0.00 in /  0 mm 0 W/m2
21:35 36.9 °F /  2.7 °C 35.6 °F /  2 °C 30.36 in /  1028 hPa ESE 5.0 mph /  8 km/h 14.0 mph /  22.5 km/h 95 % 0.00 in /  0 mm 0 W/m2
21:40 37.0 °F /  2.8 °C 35.7 °F /  2.1 °C 30.36 in /  1028 hPa East 5.0 mph /  8 km/h 14.0 mph /  22.5 km/h 95 % 0.00 in /  0 mm 0 W/m2
21:45 37.0 °F /  2.8 °C 35.7 °F /  2.1 °C 30.36 in /  1028 hPa East 5.0 mph /  8 km/h 14.0 mph /  22.5 km/h 95 % 0.00 in /  0 mm 0 W/m2
21:55 37.0 °F /  2.8 °C 35.7 °F /  2.1 °C 30.36 in /  1028 hPa NE 5.0 mph /  8 km/h 14.0 mph /  22.5 km/h 95 % 0.00 in /  0 mm 0 W/m2
22:00 37.1 °F /  2.8 °C 35.8 °F /  2.1 °C 30.36 in /  1028 hPa East 5.0 mph /  8 km/h 14.0 mph /  22.5 km/h 95 % 0.00 in /  0 mm 0 W/m2
22:05 37.1 °F /  2.8 °C 35.8 °F /  2.1 °C 30.35 in /  1027.7 hPa ESE 5.0 mph /  8 km/h 14.0 mph /  22.5 km/h 95 % 0.00 in /  0 mm 0 W/m2
22:10 37.2 °F /  2.9 °C 36.2 °F /  2.3 °C 30.36 in /  1028 hPa ENE 6.0 mph /  9.7 km/h 6.0 mph /  9.7 km/h 96 % 0.00 in /  0 mm 0 W/m2
22:20 37.2 °F /  2.9 °C 36.2 °F /  2.3 °C 30.36 in /  1028 hPa East 6.0 mph /  9.7 km/h 6.0 mph /  9.7 km/h 96 % 0.00 in /  0 mm 0 W/m2
22:25 37.3 °F /  2.9 °C 36.3 °F /  2.4 °C 30.36 in /  1028 hPa ESE 6.0 mph /  9.7 km/h 8.0 mph /  12.9 km/h 96 % 0.00 in /  0 mm 0 W/m2
22:30 37.3 °F /  2.9 °C 36.3 °F /  2.4 °C 30.36 in /  1028 hPa East 5.0 mph /  8 km/h 5.0 mph /  8 km/h 96 % 0.00 in /  0 mm 0 W/m2
22:35 37.4 °F /  3 °C 36.4 °F /  2.4 °C 30.36 in /  1028 hPa ESE 5.0 mph /  8 km/h 8.0 mph /  12.9 km/h 96 % 0.00 in /  0 mm 0 W/m2
22:45 37.5 °F /  3.1 °C 36.2 °F /  2.3 °C 30.36 in /  1028 hPa East 6.0 mph /  9.7 km/h 14.0 mph /  22.5 km/h 95 % 0.00 in /  0 mm 0 W/m2
22:50 37.5 °F /  3.1 °C 36.2 °F /  2.3 °C 30.36 in /  1028 hPa ESE 6.0 mph /  9.7 km/h 14.0 mph /  22.5 km/h 95 % 0.00 in /  0 mm 0 W/m2
22:55 37.6 °F /  3.1 °C 36.3 °F /  2.4 °C 30.37 in /  1028.3 hPa East 7.0 mph /  11.3 km/h 14.0 mph /  22.5 km/h 95 % 0.00 in /  0 mm 0 W/m2
23:05 37.6 °F /  3.1 °C 36.3 °F /  2.4 °C 30.36 in /  1028 hPa ESE 6.0 mph /  9.7 km/h 14.0 mph /  22.5 km/h 95 % 0.00 in /  0 mm 0 W/m2
23:10 37.7 °F /  3.2 °C 36.4 °F /  2.4 °C 30.36 in /  1028 hPa ENE 7.0 mph /  11.3 km/h 7.0 mph /  11.3 km/h 95 % 0.00 in /  0 mm 0 W/m2
23:15 37.7 °F /  3.2 °C 36.4 °F /  2.4 °C 30.36 in /  1028 hPa ENE 7.0 mph /  11.3 km/h 14.0 mph /  22.5 km/h 95 % 0.00 in /  0 mm 0 W/m2
23:20 37.7 °F /  3.2 °C 36.4 °F /  2.4 °C 30.36 in /  1028 hPa ENE 7.0 mph /  11.3 km/h 7.0 mph /  11.3 km/h 95 % 0.00 in /  0 mm 0 W/m2
23:25 37.7 °F /  3.2 °C 36.4 °F /  2.4 °C 30.37 in /  1028.3 hPa ENE 7.0 mph /  11.3 km/h 14.0 mph /  22.5 km/h 95 % 0.00 in /  0 mm 0 W/m2
23:35 37.8 °F /  3.2 °C 36.5 °F /  2.5 °C 30.37 in /  1028.3 hPa ENE 7.0 mph /  11.3 km/h 14.0 mph /  22.5 km/h 95 % 0.00 in /  0 mm 0 W/m2
23:40 37.8 °F /  3.2 °C 36.5 °F /  2.5 °C 30.37 in /  1028.3 hPa East 8.0 mph /  12.9 km/h 14.0 mph /  22.5 km/h 95 % 0.00 in /  0 mm 0 W/m2
23:45 37.8 °F /  3.2 °C 36.5 °F /  2.5 °C 30.37 in /  1028.3 hPa NE 9.0 mph /  14.5 km/h 14.0 mph /  22.5 km/h 95 % 0.00 in /  0 mm 0 W/m2
23:50 37.8 °F /  3.2 °C 36.5 °F /  2.5 °C 30.36 in /  1028 hPa East 8.0 mph /  12.9 km/h 14.0 mph /  22.5 km/h 95 % 0.00 in /  0 mm 0 W/m2
23:55 37.8 °F /  3.2 °C 36.2 °F /  2.3 °C 30.37 in /  1028.3 hPa ESE 8.0 mph /  12.9 km/h 14.0 mph /  22.5 km/h 94 % 0.00 in /  0 mm 0 W/m2
Delerius-Weather
Compliments of Weather Underground - 2 mb

Data updates at regular intervals.